createdAt,value
2018-10-19T00:02:02.346Z,98515.53
2018-10-19T00:04:32.034Z,98521.75
2018-10-19T00:07:01.192Z,98522.20
2018-10-19T00:09:30.771Z,98521.39
2018-10-19T00:12:00.054Z,98523.73
2018-10-19T00:14:29.409Z,98514.22
2018-10-19T00:16:59.242Z,98513.88
2018-10-19T00:19:29.170Z,98508.73
2018-10-19T00:21:58.478Z,98511.90
2018-10-19T00:24:27.603Z,98507.45
2018-10-19T00:26:57.036Z,98507.78
2018-10-19T00:29:26.262Z,98502.69
2018-10-19T00:31:55.388Z,98501.77
2018-10-19T00:34:24.566Z,98500.82
2018-10-19T00:36:54.399Z,98505.78
2018-10-19T00:39:23.503Z,98505.92
2018-10-19T00:41:52.667Z,98502.31
2018-10-19T00:44:21.800Z,98503.66
2018-10-19T00:46:51.598Z,98504.06
2018-10-19T00:49:20.727Z,98504.06
2018-10-19T00:51:49.855Z,98503.04
2018-10-19T00:54:19.029Z,98501.25
2018-10-19T00:56:48.182Z,98501.34
2018-10-19T00:59:17.875Z,98503.39
2018-10-19T01:01:47.027Z,98504.86
2018-10-19T01:04:16.162Z,98505.16
2018-10-19T01:06:45.397Z,98507.45
2018-10-19T01:09:15.344Z,98509.38
2018-10-19T01:11:44.391Z,98509.58
2018-10-19T01:14:13.534Z,98505.77
2018-10-19T01:16:43.414Z,98507.33
2018-10-19T01:19:13.346Z,98511.78
2018-10-19T01:21:43.291Z,98517.81
2018-10-19T01:24:13.681Z,98515.90
2018-10-19T01:26:43.042Z,98517.88
2018-10-19T01:29:12.378Z,98517.23
2018-10-19T01:31:41.799Z,98512.55
2018-10-19T01:34:11.074Z,98516.52
2018-10-19T01:36:42.278Z,98516.77
2018-10-19T01:39:12.239Z,98514.09
2018-10-19T01:41:41.962Z,98513.90
2018-10-19T01:44:11.890Z,98507.11
2018-10-19T01:46:47.343Z,98504.56
2018-10-19T01:49:16.794Z,98502.88
2018-10-19T01:51:45.978Z,98505.97
2018-10-19T01:54:15.116Z,98501.16
2018-10-19T01:56:44.546Z,98491.34
2018-10-19T01:59:13.728Z,98493.67
2018-10-19T02:01:42.818Z,98494.55
2018-10-19T02:04:12.653Z,98492.99
2018-10-19T02:06:41.870Z,98494.90
2018-10-19T02:09:11.122Z,98497.19
2018-10-19T02:11:40.729Z,98490.88
2018-10-19T02:14:09.903Z,98496.85
2018-10-19T02:16:39.418Z,98498.80
2018-10-19T02:19:08.877Z,98494.01
2018-10-19T02:21:39.034Z,98501.04
2018-10-19T02:24:08.272Z,98497.48
2018-10-19T02:26:37.519Z,98498.30
2018-10-19T02:29:07.958Z,98494.34
2018-10-19T02:31:37.533Z,98496.75
2018-10-19T02:34:07.718Z,98494.24
2018-10-19T02:36:36.858Z,98495.99
2018-10-19T02:39:08.431Z,98493.73
2018-10-19T02:41:37.519Z,98486.30
2018-10-19T02:44:06.685Z,98497.28
2018-10-19T02:46:35.814Z,98504.78
2018-10-19T02:49:05.364Z,98500.31
2018-10-19T02:51:34.822Z,98488.42
2018-10-19T02:54:04.390Z,98488.40
2018-10-19T02:56:33.551Z,98492.09
2018-10-19T02:59:02.819Z,98496.36
2018-10-19T03:01:31.895Z,98499.37
2018-10-19T03:04:01.120Z,98500.98
2018-10-19T03:06:31.480Z,98495.12
2018-10-19T03:09:00.657Z,98500.04
2018-10-19T03:11:30.208Z,98494.97
2018-10-19T03:13:59.348Z,98499.11
2018-10-19T03:16:28.559Z,98498.92
2018-10-19T03:18:58.350Z,98500.18
2018-10-19T03:21:27.638Z,98501.92
2018-10-19T03:23:56.878Z,98506.81
2018-10-19T03:26:26.796Z,98512.05
2018-10-19T03:28:56.382Z,98514.58
2018-10-19T03:31:25.670Z,98511.08
2018-10-19T03:33:54.937Z,98502.84
2018-10-19T03:36:24.174Z,98505.56
2018-10-19T03:38:53.328Z,98505.77
2018-10-19T03:41:22.496Z,98507.34
2018-10-19T03:43:51.671Z,98501.47
2018-10-19T03:46:21.124Z,98506.88
2018-10-19T03:48:50.262Z,98510.50
2018-10-19T03:51:19.499Z,98512.72
2018-10-19T03:53:48.591Z,98511.77
2018-10-19T03:56:17.741Z,98510.67
2018-10-19T03:58:46.902Z,98508.28
2018-10-19T04:01:16.703Z,98504.66
2018-10-19T04:03:45.928Z,98505.29
2018-10-19T04:06:15.074Z,98509.20
2018-10-19T04:08:44.306Z,98512.69
2018-10-19T04:11:13.612Z,98507.17
2018-10-19T04:13:42.790Z,98510.31
2018-10-19T04:16:11.926Z,98503.62
2018-10-19T04:18:41.095Z,98505.85
2018-10-19T04:21:10.416Z,98513.93
2018-10-19T04:23:39.433Z,98509.22
2018-10-19T04:26:08.639Z,98507.58
2018-10-19T04:28:37.829Z,98505.95
2018-10-19T04:31:07.022Z,98516.35
2018-10-19T04:33:36.254Z,98513.65
2018-10-19T04:36:05.752Z,98516.18
2018-10-19T04:38:35.387Z,98521.82
2018-10-19T04:41:04.603Z,98516.11
2018-10-19T04:43:33.769Z,98527.16
2018-10-19T04:46:02.928Z,98521.98
2018-10-19T04:48:32.113Z,98519.78
2018-10-19T04:51:01.386Z,98521.70
2018-10-19T04:53:30.503Z,98527.19
2018-10-19T04:55:59.613Z,98530.03
2018-10-19T04:58:28.994Z,98527.98
2018-10-19T05:00:58.153Z,98526.57
2018-10-19T05:03:27.307Z,98533.19
2018-10-19T05:05:57.190Z,98530.63
2018-10-19T05:08:26.345Z,98532.23
2018-10-19T05:10:56.087Z,98541.63
2018-10-19T05:13:25.234Z,98540.23
2018-10-19T05:15:54.423Z,98544.59
2018-10-19T05:18:24.258Z,98558.03
2018-10-19T05:20:53.678Z,98562.34
2018-10-19T05:23:22.822Z,98566.32
2018-10-19T05:25:51.778Z,98560.87
2018-10-19T05:28:20.995Z,98565.88
2018-10-19T05:30:50.224Z,98565.64
2018-10-19T05:33:19.373Z,98567.19
2018-10-19T05:35:48.530Z,98563.41
2018-10-19T05:38:17.742Z,98566.56
2018-10-19T05:40:46.912Z,98570.70
2018-10-19T05:43:17.726Z,98574.19
2018-10-19T05:45:47.037Z,98576.34
2018-10-19T05:48:16.571Z,98580.56
2018-10-19T05:50:45.741Z,98576.42
2018-10-19T05:53:14.971Z,98572.55
2018-10-19T05:55:44.054Z,98577.13
2018-10-19T05:58:13.214Z,98578.04
2018-10-19T06:00:42.353Z,98591.02
2018-10-19T06:03:12.253Z,98593.48
2018-10-19T06:05:41.450Z,98594.80
2018-10-19T06:08:12.092Z,98600.79
2018-10-19T06:10:41.209Z,98599.21
2018-10-19T06:13:10.363Z,98596.69
2018-10-19T06:15:39.516Z,98597.64
2018-10-19T06:18:08.645Z,98595.72
2018-10-19T06:20:37.790Z,98603.19
2018-10-19T06:23:07.174Z,98604.50
2018-10-19T06:25:36.015Z,98611.41
2018-10-19T06:28:05.171Z,98612.70
2018-10-19T06:30:34.402Z,98624.31
2018-10-19T06:33:03.566Z,98624.83
2018-10-19T06:35:32.718Z,98630.77
2018-10-19T06:38:01.873Z,98634.80
2018-10-19T06:40:31.024Z,98636.89
2018-10-19T06:43:00.177Z,98638.33
2018-10-19T06:45:29.356Z,98649.44
2018-10-19T06:47:58.530Z,98635.13
2018-10-19T06:50:27.762Z,98642.89
2018-10-19T06:52:57.016Z,98642.51
2018-10-19T06:55:26.222Z,98640.73
2018-10-19T06:57:55.496Z,98643.63
2018-10-19T07:00:24.653Z,98646.83
2018-10-19T07:02:53.798Z,98646.54
2018-10-19T07:05:22.921Z,98648.20
2018-10-19T07:07:52.099Z,98648.66
2018-10-19T07:10:21.246Z,98656.27
2018-10-19T07:12:50.374Z,98653.00
2018-10-19T07:15:19.528Z,98665.98
2018-10-19T07:17:48.682Z,98663.07
2018-10-19T07:20:18.202Z,98670.10
2018-10-19T07:22:47.670Z,98672.20
2018-10-19T07:25:16.374Z,98669.14
2018-10-19T07:27:45.608Z,98665.84
2018-10-19T07:30:14.762Z,98669.05
2018-10-19T07:32:44.277Z,98671.94
2018-10-19T07:35:13.501Z,98669.68
2018-10-19T07:37:42.614Z,98664.73
2018-10-19T07:40:11.754Z,98666.84
2018-10-19T07:42:40.954Z,98666.55
2018-10-19T07:45:10.151Z,98671.44
2018-10-19T07:47:40.098Z,98672.80
2018-10-19T07:50:09.765Z,98677.95
2018-10-19T07:52:39.687Z,98681.78
2018-10-19T07:55:10.791Z,98675.19
2018-10-19T07:57:39.988Z,98683.20
2018-10-19T08:00:10.114Z,98674.79
2018-10-19T08:02:39.498Z,98679.16
2018-10-19T08:05:09.670Z,98681.05
2018-10-19T08:07:38.737Z,98687.75
2018-10-19T08:10:10.282Z,98675.62
2018-10-19T08:12:39.645Z,98682.56
2018-10-19T08:15:09.701Z,98674.90
2018-10-19T08:17:38.435Z,98668.44
2018-10-19T08:20:08.434Z,98672.33
2018-10-19T08:22:37.712Z,98669.64
2018-10-19T08:25:06.985Z,98673.29
2018-10-19T08:27:36.293Z,98675.02
2018-10-19T08:30:05.511Z,98665.00
2018-10-19T08:32:34.573Z,98660.39
2018-10-19T08:35:03.765Z,98668.29
2018-10-19T08:37:32.697Z,98663.37
2018-10-19T08:40:01.799Z,98670.30
2018-10-19T08:42:31.219Z,98673.82
2018-10-19T08:45:00.019Z,98669.45
2018-10-19T08:47:29.147Z,98668.10
2018-10-19T08:49:58.219Z,98675.20
2018-10-19T08:52:27.369Z,98681.63
2018-10-19T08:54:56.531Z,98678.14
2018-10-19T08:57:25.631Z,98673.42
2018-10-19T08:59:54.996Z,98671.93
2018-10-19T09:02:23.824Z,98673.39
2018-10-19T09:04:52.958Z,98674.41
2018-10-19T09:07:22.082Z,98673.90
2018-10-19T09:09:51.219Z,98671.53
2018-10-19T09:12:20.446Z,98676.14
2018-10-19T09:14:54.638Z,98671.83
2018-10-19T09:17:23.861Z,98672.16
2018-10-19T09:19:53.319Z,98668.38
2018-10-19T09:22:22.545Z,98679.09
2018-10-19T09:24:52.469Z,98674.05
2018-10-19T09:27:21.682Z,98671.62
2018-10-19T09:29:50.822Z,98665.14
2018-10-19T09:32:20.001Z,98664.78
2018-10-19T09:34:49.117Z,98665.55
2018-10-19T09:37:18.241Z,98667.34
2018-10-19T09:39:47.380Z,98658.55
2018-10-19T09:42:17.230Z,98658.13
2018-10-19T09:44:46.813Z,98656.26
2018-10-19T09:47:16.072Z,98657.61
2018-10-19T09:49:45.250Z,98658.23
2018-10-19T09:52:14.441Z,98662.22
2018-10-19T09:54:43.601Z,98659.41
2018-10-19T09:57:13.376Z,98654.34
2018-10-19T09:59:42.438Z,98652.86
2018-10-19T10:02:11.671Z,98654.78
2018-10-19T10:04:40.518Z,98661.80
2018-10-19T10:07:09.745Z,98657.23
2018-10-19T10:09:38.860Z,98664.73
2018-10-19T10:12:08.097Z,98664.58
2018-10-19T10:14:37.774Z,98664.67
2018-10-19T10:17:06.959Z,98667.05
2018-10-19T10:19:36.134Z,98657.87
2018-10-19T10:22:06.682Z,98658.80
2018-10-19T10:24:36.048Z,98650.38
2018-10-19T10:27:05.498Z,98647.44
2018-10-19T10:29:34.774Z,98655.69
2018-10-19T10:32:04.046Z,98650.81
2018-10-19T10:34:33.143Z,98645.95
2018-10-19T10:37:02.337Z,98651.26
2018-10-19T10:39:31.559Z,98652.58
2018-10-19T10:42:00.724Z,98653.13
2018-10-19T10:44:29.898Z,98653.38
2018-10-19T10:46:59.098Z,98649.69
2018-10-19T10:49:28.252Z,98646.59
2018-10-19T10:51:57.487Z,98642.14
2018-10-19T10:54:26.610Z,98641.58
2018-10-19T10:56:56.037Z,98640.06
2018-10-19T10:59:25.245Z,98638.81
2018-10-19T11:01:54.654Z,98636.06
2018-10-19T11:04:23.991Z,98633.80
2018-10-19T11:06:53.078Z,98631.94
2018-10-19T11:09:22.158Z,98624.03
2018-10-19T11:11:51.341Z,98632.92
2018-10-19T11:14:20.525Z,98624.08
2018-10-19T11:16:49.730Z,98625.95
2018-10-19T11:19:19.488Z,98625.58
2018-10-19T11:21:49.174Z,98621.30
2018-10-19T11:24:18.310Z,98625.67
2018-10-19T11:26:47.428Z,98618.98
2018-10-19T11:29:17.121Z,98610.41
2018-10-19T11:31:47.506Z,98611.88
2018-10-19T11:34:16.746Z,98610.20
2018-10-19T11:36:45.834Z,98600.13
2018-10-19T11:39:15.010Z,98598.97
2018-10-19T11:41:44.233Z,98600.86
2018-10-19T11:44:14.009Z,98594.02
2018-10-19T11:46:43.198Z,98594.09
2018-10-19T11:49:12.412Z,98594.19
2018-10-19T11:51:41.645Z,98595.64
2018-10-19T11:54:10.698Z,98592.00
2018-10-19T11:56:39.914Z,98584.67
2018-10-19T11:59:09.082Z,98576.63
2018-10-19T12:01:38.210Z,98578.00
2018-10-19T12:04:07.180Z,98582.27
2018-10-19T12:06:36.441Z,98576.64
2018-10-19T12:09:08.738Z,98578.50
2018-10-19T12:11:37.966Z,98580.87
2018-10-19T12:14:07.233Z,98579.73
2018-10-19T12:16:36.488Z,98575.91
2018-10-19T12:19:05.624Z,98573.14
2018-10-19T12:21:34.734Z,98572.31
2018-10-19T12:24:03.946Z,98566.68
2018-10-19T12:26:32.774Z,98569.08
2018-10-19T12:29:01.985Z,98568.10
2018-10-19T12:31:31.129Z,98571.74
2018-10-19T12:34:00.282Z,98568.23
2018-10-19T12:36:29.502Z,98569.24
2018-10-19T12:38:58.689Z,98560.94
2018-10-19T12:41:27.782Z,98557.24
2018-10-19T12:43:56.954Z,98560.66
2018-10-19T12:46:50.314Z,98564.17
2018-10-19T12:49:23.656Z,98563.44
2018-10-19T12:51:52.838Z,98557.17
2018-10-19T12:54:22.385Z,98558.84
2018-10-19T12:56:51.443Z,98562.31
2018-10-19T12:59:20.385Z,98555.77
2018-10-19T13:01:49.172Z,98552.73
2018-10-19T13:04:18.314Z,98552.81
2018-10-19T13:06:47.626Z,98553.77
2018-10-19T13:09:17.016Z,98555.02
2018-10-19T13:11:46.206Z,98553.89
2018-10-19T13:14:15.545Z,98545.23
2018-10-19T13:16:44.791Z,98553.59
2018-10-19T13:19:14.072Z,98551.00
2018-10-19T13:21:43.238Z,98548.55
2018-10-19T13:24:12.499Z,98545.87
2018-10-19T13:26:41.608Z,98536.93
2018-10-19T13:29:10.742Z,98535.78
2018-10-19T13:31:40.302Z,98547.04
2018-10-19T13:34:09.492Z,98549.74
2018-10-19T13:36:38.587Z,98541.18
2018-10-19T13:39:12.720Z,98545.23
2018-10-19T13:41:42.231Z,98555.35
2018-10-19T13:44:11.462Z,98548.20
2018-10-19T13:46:40.618Z,98546.34
2018-10-19T13:49:09.730Z,98544.29
2018-10-19T13:51:38.886Z,98544.00
2018-10-19T13:54:08.013Z,98554.06
2018-10-19T13:56:37.166Z,98550.57
2018-10-19T13:59:06.360Z,98544.64
2018-10-19T14:01:36.090Z,98549.19
2018-10-19T14:04:05.052Z,98540.36
2018-10-19T14:06:34.230Z,98535.95
2018-10-19T14:09:04.063Z,98536.14
2018-10-19T14:11:33.190Z,98537.99
2018-10-19T14:14:03.565Z,98532.67
2018-10-19T14:16:32.746Z,98528.38
2018-10-19T14:19:01.897Z,98533.38
2018-10-19T14:21:31.053Z,98529.73
2018-10-19T14:24:00.223Z,98526.98
2018-10-19T14:26:29.436Z,98531.02
2018-10-19T14:28:58.658Z,98526.56
2018-10-19T14:31:28.206Z,98525.47
2018-10-19T14:33:57.682Z,98531.78
2018-10-19T14:36:27.209Z,98525.94
2018-10-19T14:38:56.769Z,98533.33
2018-10-19T14:41:27.002Z,98532.69
2018-10-19T14:43:55.926Z,98528.63
2018-10-19T14:46:25.550Z,98533.64
2018-10-19T14:48:54.760Z,98534.52
2018-10-19T14:51:24.670Z,98537.83
2018-10-19T14:53:54.315Z,98534.45
2018-10-19T14:56:24.570Z,98538.64
2018-10-19T14:58:55.439Z,98534.98
2018-10-19T15:01:26.321Z,98540.00
2018-10-19T15:03:56.066Z,98543.94
2018-10-19T15:06:25.184Z,98542.95
2018-10-19T15:08:54.684Z,98543.25
2018-10-19T15:11:25.047Z,98539.64
2018-10-19T15:13:54.262Z,98540.16
2018-10-19T15:16:23.357Z,98534.79
2018-10-19T15:18:52.593Z,98541.06
2018-10-19T15:21:21.801Z,98543.52
2018-10-19T15:23:50.942Z,98542.38
2018-10-19T15:26:20.693Z,98541.97
2018-10-19T15:28:51.248Z,98536.36
2018-10-19T15:31:20.397Z,98545.95
2018-10-19T15:33:49.741Z,98541.23
2018-10-19T15:36:19.750Z,98542.32
2018-10-19T15:38:49.082Z,98539.75
2018-10-19T15:41:18.254Z,98540.75
2018-10-19T15:43:48.022Z,98538.98
2018-10-19T15:46:17.150Z,98538.55
2018-10-19T15:48:46.335Z,98548.06
2018-10-19T15:51:15.971Z,98545.87
2018-10-19T15:53:45.974Z,98547.09
2018-10-19T15:56:15.285Z,98544.89
2018-10-19T15:58:45.034Z,98548.52
2018-10-19T16:01:14.228Z,98554.02
2018-10-19T16:03:43.997Z,98561.89
2018-10-19T16:06:13.341Z,98553.09
2018-10-19T16:08:43.276Z,98563.05
2018-10-19T16:11:12.677Z,98564.69
2018-10-19T16:13:42.147Z,98563.31
2018-10-19T16:16:11.715Z,98560.95
2018-10-19T16:18:41.206Z,98568.75
2018-10-19T16:21:10.777Z,98566.16
2018-10-19T16:23:40.151Z,98566.44
2018-10-19T16:26:10.010Z,98568.41
2018-10-19T16:28:40.368Z,98583.58
2018-10-19T16:31:09.879Z,98580.42
2018-10-19T16:33:39.038Z,98582.78
2018-10-19T16:36:08.794Z,98582.45
2018-10-19T16:38:38.990Z,98583.64
2018-10-19T16:41:08.303Z,98582.48
2018-10-19T16:43:38.004Z,98588.67
2018-10-19T16:46:07.784Z,98593.69
2018-10-19T16:48:37.654Z,98599.02
2018-10-19T16:51:07.065Z,98599.00
2018-10-19T16:53:36.599Z,98594.50
2018-10-19T16:56:06.073Z,98598.92
2018-10-19T16:58:35.550Z,98602.18
2018-10-19T17:01:05.130Z,98598.02
2018-10-19T17:03:34.314Z,98605.02
2018-10-19T17:06:03.893Z,98601.78
2018-10-19T17:08:33.429Z,98604.16
2018-10-19T17:11:02.255Z,98605.34
2018-10-19T17:13:31.398Z,98606.72
2018-10-19T17:16:00.538Z,98607.11
2018-10-19T17:18:31.000Z,98618.00
2018-10-19T17:21:00.860Z,98617.53
2018-10-19T17:23:29.930Z,98620.55
2018-10-19T17:25:59.094Z,98619.06
2018-10-19T17:28:28.290Z,98621.13
2018-10-19T17:30:57.674Z,98622.55
2018-10-19T17:33:27.111Z,98631.51
2018-10-19T17:35:56.777Z,98639.19
2018-10-19T17:38:25.906Z,98636.41
2018-10-19T17:40:55.300Z,98648.92
2018-10-19T17:43:24.175Z,98648.62
2018-10-19T17:45:53.188Z,98648.10
2018-10-19T17:48:22.410Z,98648.79
2018-10-19T17:50:52.952Z,98646.10
2018-10-19T17:53:22.298Z,98646.52
2018-10-19T17:55:51.674Z,98649.45
2018-10-19T17:58:20.860Z,98653.06
2018-10-19T18:00:50.242Z,98652.67
2018-10-19T18:03:19.446Z,98656.89
2018-10-19T18:05:48.786Z,98655.92
2018-10-19T18:08:17.987Z,98657.77
2018-10-19T18:10:47.077Z,98653.12
2018-10-19T18:13:17.297Z,98653.53
2018-10-19T18:15:46.583Z,98655.78
2018-10-19T18:18:15.794Z,98653.28
2018-10-19T18:20:45.762Z,98653.88
2018-10-19T18:23:15.379Z,98660.34
2018-10-19T18:25:44.714Z,98663.71
2018-10-19T18:28:14.466Z,98660.50
2018-10-19T18:30:44.097Z,98659.37
2018-10-19T18:33:14.091Z,98659.14
2018-10-19T18:35:42.944Z,98659.19
2018-10-19T18:38:12.181Z,98667.55
2018-10-19T18:40:41.361Z,98667.75
2018-10-19T18:43:10.494Z,98669.45
2018-10-19T18:45:39.851Z,98669.91
2018-10-19T18:48:09.019Z,98674.88
2018-10-19T18:50:38.187Z,98674.03
2018-10-19T18:53:08.151Z,98679.25
2018-10-19T18:55:37.993Z,98684.09
2018-10-19T18:58:07.665Z,98690.80
2018-10-19T19:00:36.965Z,98692.61
2018-10-19T19:03:06.266Z,98697.94
2018-10-19T19:05:36.051Z,98696.14
2018-10-19T19:08:06.013Z,98708.18
2018-10-19T19:10:35.308Z,98711.00
2018-10-19T19:13:10.225Z,98709.61
2018-10-19T19:15:40.322Z,98708.66
2018-10-19T19:18:09.557Z,98720.25
2018-10-19T19:20:38.721Z,98715.58
2018-10-19T19:23:08.672Z,98726.70
2018-10-19T19:25:43.063Z,98729.60
2018-10-19T19:28:12.449Z,98726.37
2018-10-19T19:30:42.326Z,98735.84
2018-10-19T19:33:17.633Z,98740.71
2018-10-19T19:35:46.859Z,98741.77
2018-10-19T19:38:16.383Z,98748.17
2018-10-19T19:40:51.610Z,98746.62
2018-10-19T19:43:20.808Z,98754.98
2018-10-19T19:45:49.990Z,98754.73
2018-10-19T19:48:24.344Z,98757.54
2018-10-19T19:50:53.474Z,98757.73
2018-10-19T19:53:22.751Z,98757.56
2018-10-19T19:55:52.520Z,98759.27
2018-10-19T19:58:22.164Z,98762.52
2018-10-19T20:00:51.602Z,98765.81
2018-10-19T20:03:21.670Z,98768.34
2018-10-19T20:05:51.265Z,98764.30
2018-10-19T20:08:20.422Z,98776.73
2018-10-19T20:10:49.866Z,98769.44
2018-10-19T20:13:19.530Z,98771.14
2018-10-19T20:15:48.812Z,98775.45
2018-10-19T20:18:18.995Z,98773.24
2018-10-19T20:20:48.779Z,98779.00
2018-10-19T20:23:18.173Z,98783.95
2018-10-19T20:25:47.467Z,98789.70
2018-10-19T20:28:16.959Z,98789.92
2018-10-19T20:30:47.021Z,98792.19
2018-10-19T20:33:16.328Z,98792.88
2018-10-19T20:35:45.810Z,98793.23
2018-10-19T20:38:15.191Z,98796.68
2018-10-19T20:40:44.589Z,98798.50
2018-10-19T20:43:13.803Z,98797.71
2018-10-19T20:45:43.031Z,98796.65
2018-10-19T20:48:12.902Z,98801.41
2018-10-19T20:50:42.866Z,98793.80
2018-10-19T20:53:12.227Z,98795.70
2018-10-19T20:55:42.052Z,98797.95
2018-10-19T20:58:11.362Z,98801.19
2018-10-19T21:00:40.548Z,98802.48
2018-10-19T21:03:10.986Z,98808.52
2018-10-19T21:05:40.827Z,98813.09
2018-10-19T21:08:10.204Z,98814.34
2018-10-19T21:10:39.543Z,98816.09
2018-10-19T21:13:09.238Z,98818.35
2018-10-19T21:15:38.606Z,98822.66
2018-10-19T21:18:08.349Z,98825.03
2018-10-19T21:20:37.563Z,98823.45
2018-10-19T21:23:07.383Z,98818.35
2018-10-19T21:25:36.761Z,98826.30
2018-10-19T21:28:06.844Z,98824.42
2018-10-19T21:30:37.038Z,98828.20
2018-10-19T21:33:06.063Z,98822.16
2018-10-19T21:35:36.498Z,98818.20
2018-10-19T21:38:05.663Z,98822.52
2018-10-19T21:40:34.846Z,98821.53
2018-10-19T21:43:10.660Z,98819.64
2018-10-19T21:45:40.570Z,98812.03
2018-10-19T21:48:10.036Z,98815.34
2018-10-19T21:50:39.213Z,98817.56
2018-10-19T21:53:08.408Z,98825.67
2018-10-19T21:55:37.539Z,98826.92
2018-10-19T21:58:06.768Z,98824.08
2018-10-19T22:00:36.011Z,98824.24
2018-10-19T22:03:05.386Z,98835.52
2018-10-19T22:05:34.614Z,98839.66
2018-10-19T22:08:03.840Z,98841.72
2018-10-19T22:10:33.100Z,98841.25
2018-10-19T22:13:02.291Z,98843.48
2018-10-19T22:15:31.394Z,98845.66
2018-10-19T22:18:00.545Z,98838.04
2018-10-19T22:20:29.718Z,98834.81
2018-10-19T22:22:59.530Z,98832.23
2018-10-19T22:25:28.916Z,98841.23
2018-10-19T22:27:58.162Z,98840.78
2018-10-19T22:30:27.351Z,98839.00
2018-10-19T22:32:56.673Z,98836.66
2018-10-19T22:35:26.051Z,98840.03
2018-10-19T22:37:54.816Z,98840.20
2018-10-19T22:40:24.037Z,98841.97
2018-10-19T22:42:52.893Z,98837.25
2018-10-19T22:45:22.070Z,98843.94
2018-10-19T22:47:51.202Z,98838.69
2018-10-19T22:50:20.355Z,98837.69
2018-10-19T22:52:49.503Z,98837.94
2018-10-19T22:55:19.394Z,98845.17
2018-10-19T22:57:48.902Z,98848.02
2018-10-19T23:00:18.036Z,98842.67
2018-10-19T23:02:47.179Z,98851.92
2018-10-19T23:05:16.537Z,98854.09
2018-10-19T23:07:45.601Z,98851.77
2018-10-19T23:10:14.966Z,98853.38
2018-10-19T23:12:43.758Z,98857.73
2018-10-19T23:15:12.878Z,98859.80
2018-10-19T23:17:42.003Z,98860.81
2018-10-19T23:20:11.116Z,98864.25
2018-10-19T23:22:40.231Z,98864.87
2018-10-19T23:25:09.446Z,98862.64
2018-10-19T23:27:39.402Z,98862.02
2018-10-19T23:30:08.682Z,98864.05
2018-10-19T23:32:37.598Z,98860.50
2018-10-19T23:35:08.176Z,98863.88
2018-10-19T23:37:37.341Z,98862.21
2018-10-19T23:40:09.674Z,98863.83
2018-10-19T23:42:38.882Z,98865.76
2018-10-19T23:45:09.021Z,98861.34
2018-10-19T23:47:38.666Z,98862.43
2018-10-19T23:50:08.494Z,98868.42
2018-10-19T23:52:38.394Z,98867.91
2018-10-19T23:55:07.678Z,98864.45
2018-10-19T23:57:37.846Z,98861.95
